Data for 04/28/2006

Time Sea-Level Adjusted Pressure Absolute Pressure Temperature Relative Humidity Dew Point   
(mb) (inHg) (mb) (inHg) (C) (F) (%) (C) (F)
00:05 1022 30.18 851 25.13 4.9 40.7 59 -2.4 27.7
00:10 1022 30.18 851 25.13 4.9 40.8 60 -2.2 28
00:15 1022 30.18 851 25.13 4.7 40.5 61 -2.2 28
00:20 1022 30.18 851 25.13 4.6 40.2 61 -2.3 27.9
00:25 1022 30.18 851 25.13 4.3 39.8 62 -2.3 27.8
00:30 1022 30.18 851 25.13 4.2 39.5 62 -2.5 27.5
00:35 1022 30.18 851 25.13 4.1 39.4 63 -2.2 28
00:40 1022 30.18 851 25.13 3.8 38.8 65 -2.3 27.9
00:45 1022 30.18 852 25.16 3.8 38.9 63 -2.6 27.3
00:50 1022 30.18 852 25.16 4.2 39.5 62 -2.4 27.7
00:55 1022 30.18 852 25.16 4.3 39.8 61 -2.5 27.6
01:00 1022 30.18 852 25.16 4 39.2 62 -2.6 27.3
01:05 1022 30.18 852 25.16 3.9 39.1 64 -2.4 27.8
01:10 1022 30.18 852 25.16 3.6 38.6 64 -2.5 27.5
01:15 1022 30.18 852 25.16 3.6 38.4 65 -2.4 27.6
01:20 1022 30.18 852 25.16 3.5 38.3 64 -2.6 27.2
01:25 1022 30.18 852 25.16 3.5 38.2 65 -2.5 27.4
01:30 1022 30.18 852 25.16 3.3 38 65 -2.6 27.3
01:35 1022 30.18 852 25.16 3.2 37.8 65 -2.7 27.2
01:40 1022 30.18 852 25.16 3.3 37.9 65 -2.7 27.1
01:45 1022 30.18 852 25.16 3.3 37.9 64 -2.8 26.9
01:50 1022 30.18 852 25.16 3.6 38.4 63 -2.9 26.8
01:55 1022 30.18 852 25.16 3.8 38.8 61 -2.9 26.7
02:00 1022 30.18 852 25.16 4.1 39.4 60 -2.9 26.8
02:05 1022 30.18 852 25.16 3.9 39.1 61 -2.8 26.9
02:10 1023 30.21 852 25.16 3.8 38.9 62 -2.8 27
02:15 1023 30.21 852 25.16 3.8 38.9 60 -3.2 26.3
02:20 1023 30.21 852 25.16 3.7 38.6 63 -2.8 26.9
02:25 1023 30.21 852 25.16 3.4 38.1 63 -3.1 26.5
02:30 1023 30.21 852 25.16 3.5 38.2 62 -3.1 26.5
02:35 1023 30.21 852 25.16 3.6 38.4 61 -3.2 26.3
02:40 1023 30.21 852 25.16 3.8 38.9 60 -3.3 26.1
02:45 1023 30.21 852 25.16 3.9 39.1 59 -3.4 26
02:50 1023 30.21 852 25.16 4 39.3 59 -3.2 26.2
02:55 1023 30.21 852 25.16 4 39.3 60 -3 26.5
03:00 1023 30.21 852 25.16 3.8 38.8 62 -2.9 26.8
03:05 1023 30.21 852 25.16 3.3 38 63 -3 26.7
03:10 1023 30.21 852 25.16 3.3 37.9 63 -3.1 26.4
03:15 1023 30.21 852 25.16 3.3 37.9 64 -2.8 26.9
03:20 1023 30.21 852 25.16 3 37.5 65 -2.9 26.8
03:25 1023 30.21 852 25.16 3.2 37.8 64 -3.1 26.5
03:30 1023 30.21 852 25.16 3.5 38.3 62 -3.1 26.4
03:35 1023 30.21 852 25.16 3.6 38.4 62 -3 26.6
03:40 1023 30.21 852 25.16 3.6 38.5 62 -2.9 26.8
03:45 1023 30.21 852 25.16 3.4 38.2 63 -2.9 26.7
03:50 1023 30.21 852 25.16 3.4 38.2 63 -3 26.6
03:55 1023 30.21 852 25.16 3.5 38.4 62 -3.1 26.4
04:00 1023 30.21 852 25.16 3.6 38.5 61 -3.2 26.3
04:05 1023 30.21 852 25.16 3.6 38.5 61 -3.1 26.4
04:10 1023 30.21 852 25.16 3.4 38.2 61 -3.5 25.7
04:15 1023 30.21 852 25.16 3.5 38.3 60 -3.4 25.9
04:20 1023 30.21 852 25.16 3.5 38.3 61 -3.3 26
04:25 1023 30.21 852 25.16 3.6 38.5 59 -3.6 25.6
04:30 1023 30.21 853 25.19 3.4 38.1 62 -3.2 26.3
04:35 1023 30.21 853 25.19 3.1 37.6 62 -3.5 25.7
04:40 1023 30.21 853 25.19 3.3 38 62 -3.3 26
04:45 1023 30.21 853 25.19 3.4 38.1 62 -3.2 26.3
04:50 1023 30.21 853 25.19 3.2 37.8 63 -3.1 26.4
04:55 1023 30.21 853 25.19 3.3 37.9 63 -3.1 26.5
05:00 1023 30.21 853 25.19 3.1 37.5 64 -3 26.6
05:05 1023 30.21 853 25.19 3 37.3 65 -3 26.7
05:10 1023 30.21 853 25.19 2.8 37.1 66 -2.9 26.7
05:15 1023 30.21 853 25.19 2.3 36.1 68 -3 26.6
05:20 1024 30.24 853 25.19 2.2 35.9 67 -3.3 26.1
05:25 1024 30.24 853 25.19 2.1 35.9 66 -3.5 25.6
05:30 1024 30.24 853 25.19 2.2 36 66 -3.5 25.8
05:35 1024 30.24 853 25.19 2.2 36 65 -3.6 25.5
05:40 1024 30.24 853 25.19 2.6 36.6 64 -3.5 25.6
05:45 1024 30.24 853 25.19 2.2 36 67 -3.2 26.2
05:50 1024 30.24 853 25.19 1.9 35.5 67 -3.5 25.7
05:55 1024 30.24 853 25.19 1.9 35.4 67 -3.5 25.6
06:00 1024 30.24 853 25.19 1.9 35.4 67 -3.5 25.7
06:05 1024 30.24 853 25.19 1.9 35.5 67 -3.5 25.7
06:10 1024 30.24 853 25.19 1.8 35.2 68 -3.5 25.7
06:15 1024 30.24 853 25.19 1.7 35 68 -3.5 25.6
06:20 1024 30.24 853 25.19 1.8 35.3 67 -3.6 25.6
06:25 1024 30.24 853 25.19 2.1 35.9 66 -3.6 25.4
06:30 1024 30.24 853 25.19 2.4 36.4 65 -3.5 25.7
06:35 1024 30.24 853 25.19 2.6 36.7 65 -3.3 26
06:40 1024 30.24 853 25.19 2.1 35.9 67 -3.3 26.1
06:45 1024 30.24 853 25.19 2 35.6 67 -3.5 25.7
06:50 1024 30.24 853 25.19 2.3 36.1 66 -3.4 25.8
06:55 1024 30.24 853 25.19 2.2 36 66 -3.4 25.8
07:00 1024 30.24 853 25.19 2 35.6 68 -3.3 26.1
07:05 1024 30.24 853 25.19 1.9 35.5 68 -3.4 25.9
07:10 1024 30.24 853 25.19 2.3 36.1 66 -3.4 25.8
07:15 1024 30.24 853 25.19 2.7 36.8 64 -3.4 25.9
07:20 1024 30.24 853 25.19 3 37.5 64 -3.1 26.4
07:25 1024 30.24 853 25.19 3.2 37.7 63 -3.2 26.3
07:30 1024 30.24 853 25.19 3.3 38 62 -3.2 26.3
07:35 1024 30.24 853 25.19 3.6 38.5 61 -3.2 26.3
07:40 1024 30.24 853 25.19 4.1 39.3 60 -2.9 26.7
07:45 1024 30.24 853 25.19 4.4 39.9 59 -2.8 27
07:50 1024 30.24 853 25.19 4.7 40.5 59 -2.5 27.4
07:55 1024 30.24 853 25.19 5 41 58 -2.6 27.2
08:00 1024 30.24 853 25.19 5.2 41.3 57 -2.5 27.4
08:05 1024 30.24 853 25.19 5.5 41.9 57 -2.4 27.6
08:10 1024 30.24 853 25.19 5.6 42.1 56 -2.5 27.4
08:15 1024 30.24 853 25.19 5.6 42.1 56 -2.5 27.4
08:20 1024 30.24 853 25.19 6.1 43 54 -2.5 27.5
08:25 1024 30.24 853 25.19 6.6 43.9 53 -2.3 27.8
08:30 1024 30.24 853 25.19 6.7 44 53 -2.2 28
08:35 1024 30.24 853 25.19 7.1 44.8 52 -2.2 28.1
08:40 1024 30.24 853 25.19 7.5 45.4 51 -1.9 28.5
08:45 1024 30.24 853 25.19 8.1 46.6 49 -1.8 28.7
08:50 1024 30.24 853 25.19 9 48.1 48 -1.6 29.2
08:55 1024 30.24 853 25.19 9.5 49.1 46 -1.4 29.5
09:00 1024 30.24 853 25.19 9.5 49.2 47 -1.3 29.7
09:05 1024 30.24 853 25.19 9.8 49.6 47 -0.9 30.4
09:10 1024 30.24 853 25.19 10 50 48 -0.6 31
09:15 1024 30.24 853 25.19 10.4 50.7 45 -1 30.1
09:20 1024 30.24 853 25.19 10.7 51.2 43 -1.5 29.3
09:25 1024 30.24 854 25.22 10.8 51.4 41 -1.9 28.6
09:30 1024 30.24 854 25.22 10.6 51 43 -1.5 29.2
09:35 1024 30.24 854 25.22 10.9 51.6 41 -1.7 28.9
09:40 1024 30.24 854 25.22 11.4 52.4 41 -1.5 29.4
09:45 1024 30.24 854 25.22 11.5 52.7 39 -1.8 28.8
09:50 1024 30.24 854 25.22 11.4 52.5 40 -1.5 29.2
09:55 1024 30.24 854 25.22 11.5 52.7 40 -1.7 28.9
10:00 1024 30.24 854 25.22 11.6 52.9 40 -1.6 29.2
10:05 1024 30.24 854 25.22 11.9 53.4 38 -2 28.4
10:10 1024 30.24 854 25.22 12.1 53.8 37 -1.9 28.5
10:15 1024 30.24 854 25.22 12.2 54 36 -2.4 27.7
10:20 1024 30.24 854 25.22 12.3 54.1 38 -1.6 29
10:25 1024 30.24 854 25.22 12.3 54.2 37 -1.9 28.6
10:30 1024 30.24 854 25.22 12.7 54.8 33 -3.1 26.4
10:35 1024 30.24 854 25.22 12.6 54.6 37 -1.7 28.9
10:40 1024 30.24 854 25.22 12.9 55.2 38 -1.1 30.1
10:45 1024 30.24 854 25.22 12.8 55.1 35 -2.1 28.3
10:50 1024 30.24 854 25.22 13 55.4 35 -2.1 28.2
10:55 1024 30.24 854 25.22 12.2 53.9 38 -1.5 29.3
11:00 1024 30.24 854 25.22 12.6 54.6 36 -2.2 28.1
11:05 1024 30.24 853 25.19 13.2 55.7 34 -2.4 27.7
11:10 1024 30.24 853 25.19 13.2 55.8 34 -2.4 27.7
11:15 1024 30.24 853 25.19 13 55.3 35 -2.1 28.2
11:20 1024 30.24 853 25.19 12.9 55.1 35 -2.2 28.1
11:25 1024 30.24 853 25.19 12.7 54.8 35 -2.3 27.9
11:30 1024 30.24 853 25.19 13.1 55.6 33 -2.8 27
11:35 1024 30.24 853 25.19 13.6 56.4 32 -2.5 27.4
11:40 1024 30.24 853 25.19 14.1 57.4 31 -2.6 27.3
11:45 1024 30.24 853 25.19 14.3 57.7 32 -2 28.3
11:50 1024 30.24 853 25.19 14.2 57.6 32 -2.3 27.9
11:55 1024 30.24 853 25.19 14.6 58.2 30 -2.6 27.4
12:00 1024 30.24 853 25.19 14.4 57.9 31 -2.5 27.5
12:05 1024 30.24 853 25.19 14.8 58.6 29 -3.1 26.5
12:10 1024 30.24 853 25.19 14.3 57.8 31 -2.5 27.5
12:15 1024 30.24 853 25.19 13.7 56.6 31 -3 26.6
12:20 1024 30.24 853 25.19 12.7 54.9 32 -3.5 25.7
12:25 1024 30.24 853 25.19 13.8 56.8 29 -4.1 24.7
12:30 1024 30.24 853 25.19 14.8 58.6 29 -3 26.5
12:35 1024 30.24 853 25.19 15.1 59.1 27 -3.7 25.3
12:40 1024 30.24 853 25.19 14.9 58.8 26 -4.2 24.4
12:45 1024 30.24 853 25.19 15 59 25 -4.6 23.7
12:50 1024 30.24 853 25.19 14.6 58.2 28 -3.9 25
12:55 1024 30.24 853 25.19 14.9 58.7 27 -4 24.9
13:00 1024 30.24 853 25.19 15.3 59.6 25 -4.7 23.5
13:05 1023 30.21 853 25.19 15.4 59.8 24 -5 23
13:10 1023 30.21 853 25.19 14.8 58.6 25 -5 22.9
13:15 1023 30.21 853 25.19 14.3 57.8 26 -5.1 22.8
13:20 1023 30.21 853 25.19 13.8 56.8 26 -5.5 22.1
13:25 1023 30.21 853 25.19 15.1 59.1 21 -7.1 19.3
13:30 1023 30.21 852 25.16 15.4 59.6 21 -6.6 20.1
13:35 1023 30.21 852 25.16 15.6 60 23 -5.5 22.1
13:40 1023 30.21 852 25.16 14.8 58.6 24 -5.7 21.7
13:45 1023 30.21 852 25.16 15.4 59.8 22 -6.4 20.5
13:50 1023 30.21 852 25.16 14.9 58.9 24 -5.5 22.1
13:55 1023 30.21 852 25.16 14.5 58 24 -5.7 21.8
14:00 1023 30.21 852 25.16 14.8 58.7 24 -5.4 22.3
14:05 1023 30.21 852 25.16 16.1 61 22 -5.8 21.5
14:10 1023 30.21 852 25.16 16.2 61.2 21 -6.2 20.9
14:15 1023 30.21 852 25.16 16.2 61.2 19 -7 19.3
14:20 1023 30.21 852 25.16 16.8 62.2 20 -6.4 20.4
14:25 1023 30.21 852 25.16 16.5 61.7 22 -5.4 22.2
14:30 1023 30.21 852 25.16 16.7 62 22 -5.3 22.4
14:35 1023 30.21 852 25.16 16.3 61.4 24 -4.3 24.3
14:40 1023 30.21 852 25.16 15.4 59.8 23 -5.5 22.2
14:45 1023 30.21 852 25.16 15.8 60.4 23 -5.2 22.6
14:50 1023 30.21 852 25.16 15.5 60 24 -4.6 23.7
14:55 1023 30.21 852 25.16 15.7 60.2 21 -6.3 20.7
15:00 1023 30.21 852 25.16 15.4 59.7 22 -6.2 20.8
15:05 1023 30.21 852 25.16 16.6 61.9 20 -6.5 20.3
15:10 1023 30.21 852 25.16 17 62.6 20 -6.2 20.8
15:15 1023 30.21 852 25.16 17.1 62.8 20 -6 21.3
15:20 1023 30.21 852 25.16 17.3 63.1 20 -5.8 21.6
15:25 1023 30.21 852 25.16 16.9 62.5 19 -6.7 20
15:30 1022 30.18 852 25.16 16.7 62.1 19 -6.8 19.7
15:35 1022 30.18 852 25.16 16.8 62.2 19 -7.1 19.3
15:40 1022 30.18 852 25.16 17 62.7 19 -6.9 19.5
15:45 1022 30.18 852 25.16 17 62.5 17 -8 17.6
15:50 1022 30.18 851 25.13 16.8 62.3 17 -7.9 17.7
15:55 1022 30.18 851 25.13 17 62.6 18 -7.6 18.4
16:00 1022 30.18 851 25.13 17.4 63.2 16 -9 15.8
16:05 1022 30.18 851 25.13 17.5 63.4 15 -9.7 14.6
16:10 1022 30.18 851 25.13 17.4 63.3 15 -9.9 14.2
16:15 1022 30.18 851 25.13 17.5 63.5 16 -8.3 17
16:20 1022 30.18 851 25.13 16.7 62.1 19 -6.9 19.5
16:25 1022 30.18 851 25.13 15.9 60.5 19 -7.7 18.1
16:30 1022 30.18 851 25.13 15.5 59.9 21 -6.8 19.7
16:35 1022 30.18 851 25.13 16.1 60.9 20 -7 19.5
16:40 1022 30.18 851 25.13 16.7 62 19 -6.9 19.6
16:45 1022 30.18 851 25.13 16.9 62.4 16 -8.8 16.2
16:50 1022 30.18 851 25.13 16.8 62.2 16 -9.1 15.6
16:55 1022 30.18 851 25.13 16.9 62.4 16 -9 15.8
17:00 1022 30.18 851 25.13 17.1 62.9 16 -8.9 16
17:05 1022 30.18 851 25.13 17 62.5 16 -8.7 16.3
17:10 1022 30.18 851 25.13 17.3 63.2 18 -7.3 18.8
17:15 1022 30.18 851 25.13 17.4 63.3 19 -6.4 20.4
17:20 1022 30.18 851 25.13 17.3 63.1 19 -6.2 20.9
17:25 1022 30.18 851 25.13 17 62.7 19 -6.6 20.1
17:30 1022 30.18 851 25.13 17.2 63 19 -6.4 20.5
17:35 1022 30.18 851 25.13 17 62.5 20 -6.4 20.5
17:40 1022 30.18 851 25.13 17.2 62.9 19 -6.7 20
17:45 1022 30.18 851 25.13 17.1 62.7 20 -6.1 20.9
17:50 1022 30.18 851 25.13 16.9 62.4 19 -6.6 20.1
17:55 1022 30.18 851 25.13 16.4 61.6 20 -6.6 20.1
18:00 1022 30.18 851 25.13 16.7 62 19 -6.7 20
18:05 1022 30.18 851 25.13 16.9 62.5 19 -6.6 20.2
18:10 1022 30.18 851 25.13 16.7 62 20 -6.6 20.1
18:15 1021 30.15 851 25.13 16.5 61.7 20 -6.7 19.9
18:20 1021 30.15 851 25.13 16.3 61.4 20 -6.5 20.3
18:25 1021 30.15 851 25.13 16.4 61.5 20 -6.3 20.7
18:30 1021 30.15 851 25.13 16.4 61.6 20 -6.2 20.9
18:35 1021 30.15 850 25.1 16.3 61.4 21 -5.8 21.5
18:40 1021 30.15 850 25.1 15.7 60.2 22 -5.9 21.4
18:45 1021 30.15 850 25.1 16 60.8 21 -6 21.1
18:50 1021 30.15 850 25.1 15.8 60.4 22 -6.1 21.1
18:55 1021 30.15 850 25.1 15.5 59.9 22 -5.8 21.6
19:00 1021 30.15 850 25.1 15.2 59.4 23 -5.9 21.3
19:05 1021 30.15 850 25.1 15.3 59.5 23 -5.9 21.4
19:10 1021 30.15 850 25.1 15.1 59.2 23 -5.7 21.7
19:15 1021 30.15 850 25.1 15.1 59.2 23 -6 21.1
19:20 1021 30.15 850 25.1 15.1 59.1 23 -5.6 21.9
19:25 1021 30.15 850 25.1 15.1 59.2 23 -5.6 21.9
19:30 1021 30.15 850 25.1 15 59 24 -5.4 22.3
19:35 1021 30.15 850 25.1 15 58.9 23 -5.8 21.6
19:40 1021 30.15 850 25.1 14.9 58.8 23 -5.8 21.6
19:45 1021 30.15 850 25.1 14.9 58.7 25 -4.8 23.3
19:50 1021 30.15 850 25.1 14.7 58.5 24 -5.4 22.3
19:55 1021 30.15 850 25.1 14.8 58.6 24 -5.4 22.2
20:00 1021 30.15 850 25.1 14.9 58.8 24 -5.3 22.5
20:05 1021 30.15 850 25.1 15 59 23 -5.9 21.5
20:10 1021 30.15 850 25.1 14.9 58.9 23 -6 21.2
20:15 1021 30.15 850 25.1 14.7 58.5 25 -5.2 22.7
20:20 1021 30.15 850 25.1 14.5 58.1 25 -5.4 22.3
20:25 1021 30.15 850 25.1 14.4 57.8 26 -4.8 23.3
20:30 1021 30.15 850 25.1 14.2 57.5 26 -5.1 22.9
20:35 1021 30.15 850 25.1 14.1 57.4 26 -4.9 23.1
20:40 1021 30.15 850 25.1 13.8 56.8 30 -3.5 25.8
20:45 1021 30.15 850 25.1 12.5 54.5 33 -3.2 26.2
20:50 1021 30.15 850 25.1 11.8 53.3 35 -3.1 26.4
20:55 1021 30.15 850 25.1 11.3 52.3 36 -3.1 26.4
21:00 1021 30.15 850 25.1 11 51.7 36 -3.4 26
21:05 1021 30.15 850 25.1 10.7 51.2 38 -3 26.7
21:10 1021 30.15 850 25.1 10.4 50.7 39 -3 26.6
21:15 1021 30.15 850 25.1 10.3 50.5 41 -2.2 28
21:20 1021 30.15 851 25.13 9.9 49.9 40 -3.1 26.3
21:25 1021 30.15 851 25.13 10.1 50.2 41 -2.5 27.5
21:30 1021 30.15 851 25.13 9.8 49.6 41 -2.9 26.7
21:35 1021 30.15 851 25.13 9.4 49 43 -2.5 27.5
21:40 1021 30.15 851 25.13 9.3 48.7 40 -3.6 25.6
21:45 1021 30.15 851 25.13 9 48.3 41 -3.5 25.6
21:50 1021 30.15 851 25.13 8.8 47.8 43 -3.2 26.3
21:55 1022 30.18 851 25.13 8.5 47.3 42 -3.5 25.7
22:00 1022 30.18 851 25.13 8.5 47.3 43 -3.5 25.7
22:05 1022 30.18 851 25.13 8.3 47 43 -3.6 25.5
22:10 1021 30.15 851 25.13 8.1 46.6 44 -3.5 25.8
22:15 1021 30.15 851 25.13 7.9 46.3 44 -3.6 25.5
22:20 1021 30.15 851 25.13 8.1 46.5 42 -3.9 24.9
22:25 1021 30.15 851 25.13 8.3 46.9 41 -4.1 24.5
22:30 1022 30.18 851 25.13 8.7 47.6 39 -4.4 24.1
22:35 1021 30.15 851 25.13 8.9 48.1 39 -4.4 24.1
22:40 1022 30.18 851 25.13 8.7 47.6 40 -4.1 24.6
22:45 1022 30.18 851 25.13 8.3 47 41 -4.2 24.4
22:50 1022 30.18 851 25.13 8 46.4 43 -3.8 25.2
22:55 1021 30.15 851 25.13 7.7 45.9 43 -3.9 25
23:00 1022 30.18 851 25.13 7.9 46.3 42 -4.1 24.7
23:05 1021 30.15 851 25.13 8 46.5 42 -4 24.8
23:10 1021 30.15 851 25.13 7.9 46.3 42 -4.2 24.5
23:15 1021 30.15 851 25.13 7.8 46 43 -4 24.7
23:20 1021 30.15 851 25.13 7.6 45.7 43 -4.1 24.7
23:25 1021 30.15 851 25.13 7.7 45.8 43 -4.2 24.4
23:30 1021 30.15 851 25.13 7.6 45.7 44 -3.9 25
23:35 1021 30.15 850 25.1 7.5 45.5 43 -4.2 24.5
23:40 1021 30.15 850 25.1 7.7 45.9 42 -4.4 24.1
23:45 1021 30.15 851 25.13 7.9 46.2 42 -4.1 24.6
23:50 1021 30.15 850 25.1 7.7 45.9 43 -3.9 25
23:55 1021 30.15 850 25.1 7.6 45.6 45 -3.7 25.3
24:00 1021 30.15 850 25.1 7.3 45.1 46 -3.7 25.3